sensor_id;sensor_type;location;lat;lon;timestamp;temperature;humidity
10788;DHT22;5446;50.826;4.380;2022-10-16T00:01:13;13.90;99.90
10788;DHT22;5446;50.826;4.380;2022-10-16T00:03:40;13.80;99.90
10788;DHT22;5446;50.826;4.380;2022-10-16T00:06:07;13.80;99.90
10788;DHT22;5446;50.826;4.380;2022-10-16T00:08:33;13.80;99.90
10788;DHT22;5446;50.826;4.380;2022-10-16T00:11:08;13.80;99.90
10788;DHT22;5446;50.826;4.380;2022-10-16T00:13:35;13.80;99.90
10788;DHT22;5446;50.826;4.380;2022-10-16T00:16:02;13.80;99.90
10788;DHT22;5446;50.826;4.380;2022-10-16T00:18:28;13.80;99.90
10788;DHT22;5446;50.826;4.380;2022-10-16T00:20:55;13.80;99.90
10788;DHT22;5446;50.826;4.380;2022-10-16T00:23:21;13.80;99.90
10788;DHT22;5446;50.826;4.380;2022-10-16T00:25:58;13.80;99.90
10788;DHT22;5446;50.826;4.380;2022-10-16T00:28:24;13.80;99.90
10788;DHT22;5446;50.826;4.380;2022-10-16T00:30:50;13.80;99.90
10788;DHT22;5446;50.826;4.380;2022-10-16T00:33:15;13.80;99.90
10788;DHT22;5446;50.826;4.380;2022-10-16T00:35:41;13.80;99.90
10788;DHT22;5446;50.826;4.380;2022-10-16T00:38:07;13.80;99.90
10788;DHT22;5446;50.826;4.380;2022-10-16T00:40:33;13.80;99.90
10788;DHT22;5446;50.826;4.380;2022-10-16T00:42:58;13.80;99.90
10788;DHT22;5446;50.826;4.380;2022-10-16T00:45:24;13.80;99.90
10788;DHT22;5446;50.826;4.380;2022-10-16T00:47:51;13.80;99.90
10788;DHT22;5446;50.826;4.380;2022-10-16T00:52:50;13.70;99.90
10788;DHT22;5446;50.826;4.380;2022-10-16T00:55:17;13.70;99.90
10788;DHT22;5446;50.826;4.380;2022-10-16T00:57:43;13.70;99.90
10788;DHT22;5446;50.826;4.380;2022-10-16T01:00:12;13.60;99.90
10788;DHT22;5446;50.826;4.380;2022-10-16T01:02:38;13.60;99.90
10788;DHT22;5446;50.826;4.380;2022-10-16T01:05:05;13.60;99.90
10788;DHT22;5446;50.826;4.380;2022-10-16T01:10:38;13.50;99.90
10788;DHT22;5446;50.826;4.380;2022-10-16T01:13:08;13.50;99.90
10788;DHT22;5446;50.826;4.380;2022-10-16T01:18:14;13.50;99.90
10788;DHT22;5446;50.826;4.380;2022-10-16T01:20:57;13.50;99.90
10788;DHT22;5446;50.826;4.380;2022-10-16T01:26:12;13.60;99.90
10788;DHT22;5446;50.826;4.380;2022-10-16T01:28:53;13.50;99.90
10788;DHT22;5446;50.826;4.380;2022-10-16T01:31:24;13.50;99.90
10788;DHT22;5446;50.826;4.380;2022-10-16T01:34:02;13.50;99.90
10788;DHT22;5446;50.826;4.380;2022-10-16T01:36:39;13.50;99.90
10788;DHT22;5446;50.826;4.380;2022-10-16T01:39:09;13.50;99.90
10788;DHT22;5446;50.826;4.380;2022-10-16T01:41:39;13.40;99.90
10788;DHT22;5446;50.826;4.380;2022-10-16T01:44:28;13.40;99.90
10788;DHT22;5446;50.826;4.380;2022-10-16T01:46:55;13.40;99.90
10788;DHT22;5446;50.826;4.380;2022-10-16T01:49:23;13.40;99.90
10788;DHT22;5446;50.826;4.380;2022-10-16T01:51:55;13.40;99.90
10788;DHT22;5446;50.826;4.380;2022-10-16T01:54:23;13.30;99.90
10788;DHT22;5446;50.826;4.380;2022-10-16T01:56:50;13.30;99.90
10788;DHT22;5446;50.826;4.380;2022-10-16T01:59:19;13.30;99.90
10788;DHT22;5446;50.826;4.380;2022-10-16T02:01:56;13.30;99.90
10788;DHT22;5446;50.826;4.380;2022-10-16T02:04:31;13.30;99.90
10788;DHT22;5446;50.826;4.380;2022-10-16T02:06:58;13.30;99.90
10788;DHT22;5446;50.826;4.380;2022-10-16T02:09:25;13.30;99.90
10788;DHT22;5446;50.826;4.380;2022-10-16T02:11:53;13.30;99.90
10788;DHT22;5446;50.826;4.380;2022-10-16T02:14:21;13.30;99.90
10788;DHT22;5446;50.826;4.380;2022-10-16T02:16:49;13.40;99.90
10788;DHT22;5446;50.826;4.380;2022-10-16T02:19:17;13.30;99.90
10788;DHT22;5446;50.826;4.380;2022-10-16T02:21:49;13.30;99.90
10788;DHT22;5446;50.826;4.380;2022-10-16T02:30:38;13.30;99.90
10788;DHT22;5446;50.826;4.380;2022-10-16T02:33:08;13.30;99.90
10788;DHT22;5446;50.826;4.380;2022-10-16T02:35:35;13.30;99.90
10788;DHT22;5446;50.826;4.380;2022-10-16T02:38:02;13.30;99.90
10788;DHT22;5446;50.826;4.380;2022-10-16T02:40:29;13.30;99.90
10788;DHT22;5446;50.826;4.380;2022-10-16T02:42:55;13.30;99.90
10788;DHT22;5446;50.826;4.380;2022-10-16T02:45:22;13.30;99.90
10788;DHT22;5446;50.826;4.380;2022-10-16T02:47:48;13.30;99.90
10788;DHT22;5446;50.826;4.380;2022-10-16T02:50:14;13.30;99.90
10788;DHT22;5446;50.826;4.380;2022-10-16T02:52:40;13.30;99.90
10788;DHT22;5446;50.826;4.380;2022-10-16T02:55:06;13.30;99.90
10788;DHT22;5446;50.826;4.380;2022-10-16T02:57:32;13.30;99.90
10788;DHT22;5446;50.826;4.380;2022-10-16T02:59:58;13.30;99.90
10788;DHT22;5446;50.826;4.380;2022-10-16T03:02:25;13.30;99.90
10788;DHT22;5446;50.826;4.380;2022-10-16T03:04:50;13.30;99.90
10788;DHT22;5446;50.826;4.380;2022-10-16T03:07:16;13.30;99.90
10788;DHT22;5446;50.826;4.380;2022-10-16T03:09:42;13.30;99.90
10788;DHT22;5446;50.826;4.380;2022-10-16T03:12:07;13.30;99.90
10788;DHT22;5446;50.826;4.380;2022-10-16T03:14:33;13.30;99.90
10788;DHT22;5446;50.826;4.380;2022-10-16T03:16:59;13.30;99.90
10788;DHT22;5446;50.826;4.380;2022-10-16T03:19:25;13.30;99.90
10788;DHT22;5446;50.826;4.380;2022-10-16T03:21:51;13.30;99.90
10788;DHT22;5446;50.826;4.380;2022-10-16T03:24:16;13.30;99.90
10788;DHT22;5446;50.826;4.380;2022-10-16T03:26:48;13.30;99.90
10788;DHT22;5446;50.826;4.380;2022-10-16T03:29:14;13.30;99.90
10788;DHT22;5446;50.826;4.380;2022-10-16T03:31:39;13.30;99.90
10788;DHT22;5446;50.826;4.380;2022-10-16T03:34:05;13.40;99.90
10788;DHT22;5446;50.826;4.380;2022-10-16T03:36:31;13.30;99.90
10788;DHT22;5446;50.826;4.380;2022-10-16T03:38:57;13.30;99.90
10788;DHT22;5446;50.826;4.380;2022-10-16T03:41:22;13.30;99.90
10788;DHT22;5446;50.826;4.380;2022-10-16T03:43:48;13.30;99.90
10788;DHT22;5446;50.826;4.380;2022-10-16T03:46:14;13.30;99.90
10788;DHT22;5446;50.826;4.380;2022-10-16T03:48:40;13.30;99.90
10788;DHT22;5446;50.826;4.380;2022-10-16T03:51:06;13.30;99.90
10788;DHT22;5446;50.826;4.380;2022-10-16T03:53:31;13.30;99.90
10788;DHT22;5446;50.826;4.380;2022-10-16T03:55:57;13.30;99.90
10788;DHT22;5446;50.826;4.380;2022-10-16T03:58:23;13.30;99.90
10788;DHT22;5446;50.826;4.380;2022-10-16T04:00:49;13.20;99.90
10788;DHT22;5446;50.826;4.380;2022-10-16T04:03:15;13.20;99.90
10788;DHT22;5446;50.826;4.380;2022-10-16T04:05:41;13.30;99.90
10788;DHT22;5446;50.826;4.380;2022-10-16T04:08:07;13.30;99.90
10788;DHT22;5446;50.826;4.380;2022-10-16T04:10:33;13.30;99.90
10788;DHT22;5446;50.826;4.380;2022-10-16T04:12:58;13.30;99.90
10788;DHT22;5446;50.826;4.380;2022-10-16T04:15:24;13.30;99.90
10788;DHT22;5446;50.826;4.380;2022-10-16T04:17:50;13.30;99.90
10788;DHT22;5446;50.826;4.380;2022-10-16T04:20:16;13.20;99.90
10788;DHT22;5446;50.826;4.380;2022-10-16T04:22:42;13.20;99.90
10788;DHT22;5446;50.826;4.380;2022-10-16T04:25:08;13.20;99.90
10788;DHT22;5446;50.826;4.380;2022-10-16T04:27:34;13.20;99.90
10788;DHT22;5446;50.826;4.380;2022-10-16T04:30:00;13.20;99.90
10788;DHT22;5446;50.826;4.380;2022-10-16T04:32:26;13.20;99.90
10788;DHT22;5446;50.826;4.380;2022-10-16T04:34:53;13.20;99.90
10788;DHT22;5446;50.826;4.380;2022-10-16T04:37:19;13.20;99.90
10788;DHT22;5446;50.826;4.380;2022-10-16T04:39:48;13.20;99.90
10788;DHT22;5446;50.826;4.380;2022-10-16T04:42:13;13.20;99.90
10788;DHT22;5446;50.826;4.380;2022-10-16T04:44:39;13.20;99.90
10788;DHT22;5446;50.826;4.380;2022-10-16T04:47:05;13.10;99.90
10788;DHT22;5446;50.826;4.380;2022-10-16T04:49:30;13.10;99.90
10788;DHT22;5446;50.826;4.380;2022-10-16T04:51:56;13.10;99.90
10788;DHT22;5446;50.826;4.380;2022-10-16T04:54:22;13.20;99.90
10788;DHT22;5446;50.826;4.380;2022-10-16T04:56:48;13.10;99.90
10788;DHT22;5446;50.826;4.380;2022-10-16T04:59:22;13.10;99.90
10788;DHT22;5446;50.826;4.380;2022-10-16T05:01:48;13.10;99.90
10788;DHT22;5446;50.826;4.380;2022-10-16T05:04:14;13.10;99.90
10788;DHT22;5446;50.826;4.380;2022-10-16T05:06:41;13.10;99.90
10788;DHT22;5446;50.826;4.380;2022-10-16T05:09:07;13.10;99.90
10788;DHT22;5446;50.826;4.380;2022-10-16T05:11:33;13.10;99.90
10788;DHT22;5446;50.826;4.380;2022-10-16T05:13:59;13.10;99.90
10788;DHT22;5446;50.826;4.380;2022-10-16T05:16:25;13.10;99.90
10788;DHT22;5446;50.826;4.380;2022-10-16T05:18:52;13.10;99.90
10788;DHT22;5446;50.826;4.380;2022-10-16T05:21:17;13.10;99.90
10788;DHT22;5446;50.826;4.380;2022-10-16T05:23:43;13.00;99.90
10788;DHT22;5446;50.826;4.380;2022-10-16T05:26:09;13.00;99.90
10788;DHT22;5446;50.826;4.380;2022-10-16T05:28:34;13.00;99.90
10788;DHT22;5446;50.826;4.380;2022-10-16T05:31:07;13.00;99.90
10788;DHT22;5446;50.826;4.380;2022-10-16T05:33:33;13.00;99.90
10788;DHT22;5446;50.826;4.380;2022-10-16T05:36:04;13.00;99.90
10788;DHT22;5446;50.826;4.380;2022-10-16T05:38:30;13.00;99.90
10788;DHT22;5446;50.826;4.380;2022-10-16T05:40:56;12.90;99.90
10788;DHT22;5446;50.826;4.380;2022-10-16T05:43:22;12.90;99.90
10788;DHT22;5446;50.826;4.380;2022-10-16T05:45:58;12.90;99.90
10788;DHT22;5446;50.826;4.380;2022-10-16T05:48:24;12.90;99.90
10788;DHT22;5446;50.826;4.380;2022-10-16T05:51:04;12.80;99.90
10788;DHT22;5446;50.826;4.380;2022-10-16T05:53:32;12.80;99.90
10788;DHT22;5446;50.826;4.380;2022-10-16T05:55:59;12.80;99.90
10788;DHT22;5446;50.826;4.380;2022-10-16T05:58:25;12.80;99.90
10788;DHT22;5446;50.826;4.380;2022-10-16T06:00:57;12.80;99.90
10788;DHT22;5446;50.826;4.380;2022-10-16T06:03:23;12.80;99.90
10788;DHT22;5446;50.826;4.380;2022-10-16T06:05:50;12.80;99.90
10788;DHT22;5446;50.826;4.380;2022-10-16T06:08:16;12.80;99.90
10788;DHT22;5446;50.826;4.380;2022-10-16T06:10:42;12.80;99.90
10788;DHT22;5446;50.826;4.380;2022-10-16T06:13:09;12.80;99.90
10788;DHT22;5446;50.826;4.380;2022-10-16T06:15:35;12.80;99.90
10788;DHT22;5446;50.826;4.380;2022-10-16T06:18:00;12.80;99.90
10788;DHT22;5446;50.826;4.380;2022-10-16T06:20:26;12.80;99.90
10788;DHT22;5446;50.826;4.380;2022-10-16T06:22:52;12.80;99.90
10788;DHT22;5446;50.826;4.380;2022-10-16T06:25:17;12.80;99.90
10788;DHT22;5446;50.826;4.380;2022-10-16T06:27:43;12.90;99.90
10788;DHT22;5446;50.826;4.380;2022-10-16T06:30:09;12.90;99.90
10788;DHT22;5446;50.826;4.380;2022-10-16T06:32:35;13.00;99.90
10788;DHT22;5446;50.826;4.380;2022-10-16T06:35:00;13.00;99.90
10788;DHT22;5446;50.826;4.380;2022-10-16T06:37:27;13.00;99.90
10788;DHT22;5446;50.826;4.380;2022-10-16T06:39:52;13.00;99.90
10788;DHT22;5446;50.826;4.380;2022-10-16T06:42:18;13.10;99.90
10788;DHT22;5446;50.826;4.380;2022-10-16T06:44:44;13.20;99.90
10788;DHT22;5446;50.826;4.380;2022-10-16T06:47:10;13.20;99.90
10788;DHT22;5446;50.826;4.380;2022-10-16T06:49:36;13.30;99.90
10788;DHT22;5446;50.826;4.380;2022-10-16T06:52:02;13.40;99.90
10788;DHT22;5446;50.826;4.380;2022-10-16T06:54:28;13.40;99.90
10788;DHT22;5446;50.826;4.380;2022-10-16T06:56:53;13.50;99.90
10788;DHT22;5446;50.826;4.380;2022-10-16T06:59:20;13.50;99.90
10788;DHT22;5446;50.826;4.380;2022-10-16T07:01:46;13.50;99.90
10788;DHT22;5446;50.826;4.380;2022-10-16T07:04:12;13.60;99.90
10788;DHT22;5446;50.826;4.380;2022-10-16T07:06:38;13.60;99.90
10788;DHT22;5446;50.826;4.380;2022-10-16T07:09:06;13.60;99.90
10788;DHT22;5446;50.826;4.380;2022-10-16T07:11:33;13.50;99.90
10788;DHT22;5446;50.826;4.380;2022-10-16T07:13:59;13.50;99.90
10788;DHT22;5446;50.826;4.380;2022-10-16T07:16:27;13.50;99.90
10788;DHT22;5446;50.826;4.380;2022-10-16T07:19:00;13.50;99.90
10788;DHT22;5446;50.826;4.380;2022-10-16T07:21:32;13.50;99.90
10788;DHT22;5446;50.826;4.380;2022-10-16T07:24:01;13.50;99.90
10788;DHT22;5446;50.826;4.380;2022-10-16T07:26:29;13.50;99.90
10788;DHT22;5446;50.826;4.380;2022-10-16T07:28:56;13.60;99.90
10788;DHT22;5446;50.826;4.380;2022-10-16T07:31:24;13.60;99.90
10788;DHT22;5446;50.826;4.380;2022-10-16T07:33:50;13.60;99.90
10788;DHT22;5446;50.826;4.380;2022-10-16T07:36:18;13.60;99.90
10788;DHT22;5446;50.826;4.380;2022-10-16T07:38:44;13.60;99.90
10788;DHT22;5446;50.826;4.380;2022-10-16T07:41:15;13.70;99.90
10788;DHT22;5446;50.826;4.380;2022-10-16T07:43:46;13.70;99.90
10788;DHT22;5446;50.826;4.380;2022-10-16T07:46:11;13.70;99.90
10788;DHT22;5446;50.826;4.380;2022-10-16T07:48:37;13.60;99.90
10788;DHT22;5446;50.826;4.380;2022-10-16T07:51:05;13.70;99.90
10788;DHT22;5446;50.826;4.380;2022-10-16T07:53:31;13.70;99.90
10788;DHT22;5446;50.826;4.380;2022-10-16T07:56:02;13.70;99.90
10788;DHT22;5446;50.826;4.380;2022-10-16T07:58:29;13.80;99.90
10788;DHT22;5446;50.826;4.380;2022-10-16T08:00:56;13.80;99.90
10788;DHT22;5446;50.826;4.380;2022-10-16T08:03:22;13.90;99.90
10788;DHT22;5446;50.826;4.380;2022-10-16T08:05:48;13.90;99.90
10788;DHT22;5446;50.826;4.380;2022-10-16T08:08:14;13.90;99.90
10788;DHT22;5446;50.826;4.380;2022-10-16T08:10:41;14.00;99.90
10788;DHT22;5446;50.826;4.380;2022-10-16T08:13:07;14.10;99.90
10788;DHT22;5446;50.826;4.380;2022-10-16T08:15:32;14.10;99.90
10788;DHT22;5446;50.826;4.380;2022-10-16T08:18:00;14.20;99.90
10788;DHT22;5446;50.826;4.380;2022-10-16T08:20:27;14.20;99.90
10788;DHT22;5446;50.826;4.380;2022-10-16T08:22:53;14.20;99.90
10788;DHT22;5446;50.826;4.380;2022-10-16T08:25:20;14.20;99.90
10788;DHT22;5446;50.826;4.380;2022-10-16T08:27:46;14.20;99.90
10788;DHT22;5446;50.826;4.380;2022-10-16T08:30:13;14.20;99.90
10788;DHT22;5446;50.826;4.380;2022-10-16T08:32:40;14.30;99.90
10788;DHT22;5446;50.826;4.380;2022-10-16T08:35:06;14.30;99.90
10788;DHT22;5446;50.826;4.380;2022-10-16T08:37:32;14.30;99.90
10788;DHT22;5446;50.826;4.380;2022-10-16T08:39:58;14.40;99.90
10788;DHT22;5446;50.826;4.380;2022-10-16T08:48:31;14.50;99.90
10788;DHT22;5446;50.826;4.380;2022-10-16T08:51:02;14.50;99.90
10788;DHT22;5446;50.826;4.380;2022-10-16T08:53:43;14.60;99.90
10788;DHT22;5446;50.826;4.380;2022-10-16T08:56:10;14.60;99.90
10788;DHT22;5446;50.826;4.380;2022-10-16T08:58:36;14.60;99.90
10788;DHT22;5446;50.826;4.380;2022-10-16T09:01:04;14.70;99.90
10788;DHT22;5446;50.826;4.380;2022-10-16T09:12:02;15.00;99.90
10788;DHT22;5446;50.826;4.380;2022-10-16T09:14:35;15.00;99.90
10788;DHT22;5446;50.826;4.380;2022-10-16T09:20:27;15.00;99.90
10788;DHT22;5446;50.826;4.380;2022-10-16T09:25:29;15.10;99.90
10788;DHT22;5446;50.826;4.380;2022-10-16T09:27:55;15.20;99.90
10788;DHT22;5446;50.826;4.380;2022-10-16T09:30:22;15.20;99.90
10788;DHT22;5446;50.826;4.380;2022-10-16T09:32:51;15.30;99.90
10788;DHT22;5446;50.826;4.380;2022-10-16T09:35:21;15.40;99.90
10788;DHT22;5446;50.826;4.380;2022-10-16T09:37:50;15.40;99.90
10788;DHT22;5446;50.826;4.380;2022-10-16T09:40:30;15.40;99.90
10788;DHT22;5446;50.826;4.380;2022-10-16T09:45:40;15.40;99.90
10788;DHT22;5446;50.826;4.380;2022-10-16T09:48:13;15.60;99.90
10788;DHT22;5446;50.826;4.380;2022-10-16T09:50:39;15.60;99.90
10788;DHT22;5446;50.826;4.380;2022-10-16T09:53:15;15.70;99.90
10788;DHT22;5446;50.826;4.380;2022-10-16T09:55:53;15.70;99.90
10788;DHT22;5446;50.826;4.380;2022-10-16T09:58:22;15.70;99.90
10788;DHT22;5446;50.826;4.380;2022-10-16T10:00:53;15.80;99.90
10788;DHT22;5446;50.826;4.380;2022-10-16T10:03:40;15.90;99.90
10788;DHT22;5446;50.826;4.380;2022-10-16T10:06:27;15.90;99.90
10788;DHT22;5446;50.826;4.380;2022-10-16T10:09:48;15.90;99.90
10788;DHT22;5446;50.826;4.380;2022-10-16T10:11:56;15.90;99.90
10788;DHT22;5446;50.826;4.380;2022-10-16T10:17:01;16.10;99.90
10788;DHT22;5446;50.826;4.380;2022-10-16T10:19:27;16.10;99.90
10788;DHT22;5446;50.826;4.380;2022-10-16T10:21:53;16.20;99.90
10788;DHT22;5446;50.826;4.380;2022-10-16T10:24:19;16.30;99.90
10788;DHT22;5446;50.826;4.380;2022-10-16T10:27:03;16.40;99.90
10788;DHT22;5446;50.826;4.380;2022-10-16T10:32:38;16.40;99.90
10788;DHT22;5446;50.826;4.380;2022-10-16T10:35:11;16.40;99.90
10788;DHT22;5446;50.826;4.380;2022-10-16T10:42:56;17.00;99.90
10788;DHT22;5446;50.826;4.380;2022-10-16T10:45:26;17.20;99.90
10788;DHT22;5446;50.826;4.380;2022-10-16T10:48:06;17.30;99.90
10788;DHT22;5446;50.826;4.380;2022-10-16T10:51:06;17.40;99.90
10788;DHT22;5446;50.826;4.380;2022-10-16T11:07:26;17.40;99.90
10788;DHT22;5446;50.826;4.380;2022-10-16T11:10:03;17.20;99.90
10788;DHT22;5446;50.826;4.380;2022-10-16T11:12:38;17.30;99.90
10788;DHT22;5446;50.826;4.380;2022-10-16T11:15:15;17.40;99.90
10788;DHT22;5446;50.826;4.380;2022-10-16T11:20:31;17.60;99.90
10788;DHT22;5446;50.826;4.380;2022-10-16T11:23:07;17.70;99.90
10788;DHT22;5446;50.826;4.380;2022-10-16T11:25:39;17.70;99.90
10788;DHT22;5446;50.826;4.380;2022-10-16T11:28:20;17.80;99.90
10788;DHT22;5446;50.826;4.380;2022-10-16T11:36:12;17.90;99.90
10788;DHT22;5446;50.826;4.380;2022-10-16T11:39:10;17.80;99.90
10788;DHT22;5446;50.826;4.380;2022-10-16T11:41:49;17.90;99.90
10788;DHT22;5446;50.826;4.380;2022-10-16T11:46:57;17.90;99.90
10788;DHT22;5446;50.826;4.380;2022-10-16T11:49:25;17.90;99.90
10788;DHT22;5446;50.826;4.380;2022-10-16T11:54:56;17.60;99.90
10788;DHT22;5446;50.826;4.380;2022-10-16T11:57:35;17.60;99.90
10788;DHT22;5446;50.826;4.380;2022-10-16T12:00:05;17.70;99.90
10788;DHT22;5446;50.826;4.380;2022-10-16T12:08:14;18.20;99.90
10788;DHT22;5446;50.826;4.380;2022-10-16T12:10:43;18.30;99.90
10788;DHT22;5446;50.826;4.380;2022-10-16T12:13:35;18.30;99.90
10788;DHT22;5446;50.826;4.380;2022-10-16T12:18:43;18.50;99.90
10788;DHT22;5446;50.826;4.380;2022-10-16T12:21:10;18.30;99.90
10788;DHT22;5446;50.826;4.380;2022-10-16T12:23:56;18.30;99.90
10788;DHT22;5446;50.826;4.380;2022-10-16T12:26:27;18.20;99.90
10788;DHT22;5446;50.826;4.380;2022-10-16T12:28:54;18.30;99.90
10788;DHT22;5446;50.826;4.380;2022-10-16T12:31:21;18.40;99.90
10788;DHT22;5446;50.826;4.380;2022-10-16T12:34:01;18.50;99.90
10788;DHT22;5446;50.826;4.380;2022-10-16T12:36:32;18.60;99.90
10788;DHT22;5446;50.826;4.380;2022-10-16T12:39:00;18.70;99.90
10788;DHT22;5446;50.826;4.380;2022-10-16T12:41:32;18.80;99.90
10788;DHT22;5446;50.826;4.380;2022-10-16T12:43:59;18.80;99.90
10788;DHT22;5446;50.826;4.380;2022-10-16T12:49:16;18.70;99.90
10788;DHT22;5446;50.826;4.380;2022-10-16T12:51:44;18.70;99.90
10788;DHT22;5446;50.826;4.380;2022-10-16T12:54:37;18.60;99.90
10788;DHT22;5446;50.826;4.380;2022-10-16T12:57:23;18.70;99.90
10788;DHT22;5446;50.826;4.380;2022-10-16T13:20:06;19.20;99.90
10788;DHT22;5446;50.826;4.380;2022-10-16T13:23:05;19.20;99.90
10788;DHT22;5446;50.826;4.380;2022-10-16T13:28:40;19.10;99.90
10788;DHT22;5446;50.826;4.380;2022-10-16T13:31:20;19.10;99.90
10788;DHT22;5446;50.826;4.380;2022-10-16T13:33:51;19.00;99.90
10788;DHT22;5446;50.826;4.380;2022-10-16T13:38:45;19.20;99.90
10788;DHT22;5446;50.826;4.380;2022-10-16T13:41:17;19.30;99.90
10788;DHT22;5446;50.826;4.380;2022-10-16T13:43:49;19.30;99.90
10788;DHT22;5446;50.826;4.380;2022-10-16T13:48:43;19.20;99.90
10788;DHT22;5446;50.826;4.380;2022-10-16T13:51:17;19.00;99.90
10788;DHT22;5446;50.826;4.380;2022-10-16T13:53:44;18.90;99.90
10788;DHT22;5446;50.826;4.380;2022-10-16T13:56:12;18.90;99.90
10788;DHT22;5446;50.826;4.380;2022-10-16T13:58:38;18.90;99.90
10788;DHT22;5446;50.826;4.380;2022-10-16T14:01:19;18.80;99.90
10788;DHT22;5446;50.826;4.380;2022-10-16T14:03:46;18.80;99.90
10788;DHT22;5446;50.826;4.380;2022-10-16T14:06:14;18.90;99.90
10788;DHT22;5446;50.826;4.380;2022-10-16T14:08:47;18.90;99.90
10788;DHT22;5446;50.826;4.380;2022-10-16T14:11:21;18.90;99.90
10788;DHT22;5446;50.826;4.380;2022-10-16T14:13:49;18.80;99.90
10788;DHT22;5446;50.826;4.380;2022-10-16T14:16:18;18.80;99.90
10788;DHT22;5446;50.826;4.380;2022-10-16T14:19:03;18.80;99.90
10788;DHT22;5446;50.826;4.380;2022-10-16T14:21:32;18.80;99.90
10788;DHT22;5446;50.826;4.380;2022-10-16T14:23:58;18.80;99.90
10788;DHT22;5446;50.826;4.380;2022-10-16T14:26:26;18.80;99.90
10788;DHT22;5446;50.826;4.380;2022-10-16T14:29:14;18.90;99.90
10788;DHT22;5446;50.826;4.380;2022-10-16T14:31:40;18.90;99.90
10788;DHT22;5446;50.826;4.380;2022-10-16T14:36:54;18.70;99.90
10788;DHT22;5446;50.826;4.380;2022-10-16T14:39:21;18.70;99.90
10788;DHT22;5446;50.826;4.380;2022-10-16T14:41:50;18.60;99.90
10788;DHT22;5446;50.826;4.380;2022-10-16T14:44:18;18.60;99.90
10788;DHT22;5446;50.826;4.380;2022-10-16T14:46:44;18.60;99.90
10788;DHT22;5446;50.826;4.380;2022-10-16T14:51:41;18.60;99.90
10788;DHT22;5446;50.826;4.380;2022-10-16T14:54:12;18.60;99.90
10788;DHT22;5446;50.826;4.380;2022-10-16T14:56:50;18.60;99.90
10788;DHT22;5446;50.826;4.380;2022-10-16T14:59:27;18.60;99.90
10788;DHT22;5446;50.826;4.380;2022-10-16T15:01:54;18.60;99.90
10788;DHT22;5446;50.826;4.380;2022-10-16T15:04:20;18.50;99.90
10788;DHT22;5446;50.826;4.380;2022-10-16T15:06:45;18.40;99.90
10788;DHT22;5446;50.826;4.380;2022-10-16T15:09:11;18.30;99.90
10788;DHT22;5446;50.826;4.380;2022-10-16T15:11:37;18.30;99.90
10788;DHT22;5446;50.826;4.380;2022-10-16T15:14:04;18.40;99.90
10788;DHT22;5446;50.826;4.380;2022-10-16T15:16:30;18.40;99.90
10788;DHT22;5446;50.826;4.380;2022-10-16T15:18:56;18.30;99.90
10788;DHT22;5446;50.826;4.380;2022-10-16T15:21:28;18.20;99.90
10788;DHT22;5446;50.826;4.380;2022-10-16T15:23:55;18.20;99.90
10788;DHT22;5446;50.826;4.380;2022-10-16T15:26:26;18.20;99.90
10788;DHT22;5446;50.826;4.380;2022-10-16T15:28:52;18.10;99.90
10788;DHT22;5446;50.826;4.380;2022-10-16T15:31:18;18.10;99.90
10788;DHT22;5446;50.826;4.380;2022-10-16T15:33:44;18.10;99.90
10788;DHT22;5446;50.826;4.380;2022-10-16T15:36:13;18.00;99.90
10788;DHT22;5446;50.826;4.380;2022-10-16T15:38:39;18.00;99.90
10788;DHT22;5446;50.826;4.380;2022-10-16T15:41:05;17.90;99.90
10788;DHT22;5446;50.826;4.380;2022-10-16T15:43:30;17.90;99.90
10788;DHT22;5446;50.826;4.380;2022-10-16T15:46:03;17.70;99.90
10788;DHT22;5446;50.826;4.380;2022-10-16T15:48:30;17.70;99.90
10788;DHT22;5446;50.826;4.380;2022-10-16T15:50:56;17.60;99.90
10788;DHT22;5446;50.826;4.380;2022-10-16T15:53:22;17.50;99.90
10788;DHT22;5446;50.826;4.380;2022-10-16T15:55:47;17.50;99.90
10788;DHT22;5446;50.826;4.380;2022-10-16T15:58:13;17.50;99.90
10788;DHT22;5446;50.826;4.380;2022-10-16T16:00:39;17.50;99.90
10788;DHT22;5446;50.826;4.380;2022-10-16T16:03:05;17.50;99.90
10788;DHT22;5446;50.826;4.380;2022-10-16T16:05:30;17.40;99.90
10788;DHT22;5446;50.826;4.380;2022-10-16T16:07:56;17.40;99.90
10788;DHT22;5446;50.826;4.380;2022-10-16T16:10:22;17.40;99.90
10788;DHT22;5446;50.826;4.380;2022-10-16T16:12:49;17.30;99.90
10788;DHT22;5446;50.826;4.380;2022-10-16T16:15:18;17.30;99.90
10788;DHT22;5446;50.826;4.380;2022-10-16T16:17:44;17.20;99.90
10788;DHT22;5446;50.826;4.380;2022-10-16T16:20:10;17.20;99.90
10788;DHT22;5446;50.826;4.380;2022-10-16T16:22:36;17.20;99.90
10788;DHT22;5446;50.826;4.380;2022-10-16T16:25:02;17.20;99.90
10788;DHT22;5446;50.826;4.380;2022-10-16T16:27:27;17.20;99.90
10788;DHT22;5446;50.826;4.380;2022-10-16T16:29:55;17.10;99.90
10788;DHT22;5446;50.826;4.380;2022-10-16T16:32:21;17.10;99.90
10788;DHT22;5446;50.826;4.380;2022-10-16T16:34:47;17.10;99.90
10788;DHT22;5446;50.826;4.380;2022-10-16T16:37:13;17.10;99.90
10788;DHT22;5446;50.826;4.380;2022-10-16T16:39:39;17.00;99.90
10788;DHT22;5446;50.826;4.380;2022-10-16T16:42:04;17.00;99.90
10788;DHT22;5446;50.826;4.380;2022-10-16T16:44:32;16.90;99.90
10788;DHT22;5446;50.826;4.380;2022-10-16T16:46:57;16.90;99.90
10788;DHT22;5446;50.826;4.380;2022-10-16T16:49:23;16.90;99.90
10788;DHT22;5446;50.826;4.380;2022-10-16T16:51:49;16.80;99.90
10788;DHT22;5446;50.826;4.380;2022-10-16T16:54:14;16.90;99.90
10788;DHT22;5446;50.826;4.380;2022-10-16T16:56:41;16.90;99.90
10788;DHT22;5446;50.826;4.380;2022-10-16T16:59:16;16.90;99.90
10788;DHT22;5446;50.826;4.380;2022-10-16T17:01:43;17.00;99.90
10788;DHT22;5446;50.826;4.380;2022-10-16T17:04:09;17.10;99.90
10788;DHT22;5446;50.826;4.380;2022-10-16T17:06:36;17.10;99.90
10788;DHT22;5446;50.826;4.380;2022-10-16T17:09:04;17.00;99.90
10788;DHT22;5446;50.826;4.380;2022-10-16T17:11:30;16.80;99.90
10788;DHT22;5446;50.826;4.380;2022-10-16T17:13:57;16.70;99.90
10788;DHT22;5446;50.826;4.380;2022-10-16T17:16:34;16.50;99.90
10788;DHT22;5446;50.826;4.380;2022-10-16T17:19:05;16.30;99.90
10788;DHT22;5446;50.826;4.380;2022-10-16T17:21:31;16.30;99.90
10788;DHT22;5446;50.826;4.380;2022-10-16T17:23:58;16.20;99.90
10788;DHT22;5446;50.826;4.380;2022-10-16T17:26:24;16.10;99.90
10788;DHT22;5446;50.826;4.380;2022-10-16T17:28:52;16.10;99.90
10788;DHT22;5446;50.826;4.380;2022-10-16T17:31:21;16.00;99.90
10788;DHT22;5446;50.826;4.380;2022-10-16T17:33:47;16.00;99.90
10788;DHT22;5446;50.826;4.380;2022-10-16T17:36:13;16.00;99.90
10788;DHT22;5446;50.826;4.380;2022-10-16T17:38:43;15.90;99.90
10788;DHT22;5446;50.826;4.380;2022-10-16T17:43:43;15.90;99.90
10788;DHT22;5446;50.826;4.380;2022-10-16T17:46:11;15.90;99.90
10788;DHT22;5446;50.826;4.380;2022-10-16T17:48:43;15.80;99.90
10788;DHT22;5446;50.826;4.380;2022-10-16T17:51:10;15.80;99.90
10788;DHT22;5446;50.826;4.380;2022-10-16T17:53:37;15.80;99.90
10788;DHT22;5446;50.826;4.380;2022-10-16T17:58:30;15.70;99.90
10788;DHT22;5446;50.826;4.380;2022-10-16T18:00:56;15.70;99.90
10788;DHT22;5446;50.826;4.380;2022-10-16T18:03:22;15.70;99.90